sensor_id;sensor_type;location;lat;lon;timestamp;P1;durP1;ratioP1;P2;durP2;ratioP2
16878;SDS011;8556;52.218;9.884;2023-07-31T00:00:15;5.90;;;2.38;;
16878;SDS011;8556;52.218;9.884;2023-07-31T00:02:42;3.97;;;2.17;;
16878;SDS011;8556;52.218;9.884;2023-07-31T00:05:09;3.58;;;1.73;;
16878;SDS011;8556;52.218;9.884;2023-07-31T00:07:36;2.40;;;1.92;;
16878;SDS011;8556;52.218;9.884;2023-07-31T00:10:03;4.18;;;2.00;;
16878;SDS011;8556;52.218;9.884;2023-07-31T00:12:30;5.72;;;1.83;;
16878;SDS011;8556;52.218;9.884;2023-07-31T00:14:59;4.22;;;1.73;;
16878;SDS011;8556;52.218;9.884;2023-07-31T00:17:26;5.70;;;2.15;;
16878;SDS011;8556;52.218;9.884;2023-07-31T00:19:52;6.65;;;2.80;;
16878;SDS011;8556;52.218;9.884;2023-07-31T00:22:19;3.40;;;2.00;;
16878;SDS011;8556;52.218;9.884;2023-07-31T00:24:46;2.13;;;1.80;;
16878;SDS011;8556;52.218;9.884;2023-07-31T00:27:13;3.70;;;1.75;;
16878;SDS011;8556;52.218;9.884;2023-07-31T00:29:40;3.00;;;2.10;;
16878;SDS011;8556;52.218;9.884;2023-07-31T00:32:08;2.13;;;1.80;;
16878;SDS011;8556;52.218;9.884;2023-07-31T00:34:35;7.18;;;2.35;;
16878;SDS011;8556;52.218;9.884;2023-07-31T00:37:01;2.42;;;1.58;;
16878;SDS011;8556;52.218;9.884;2023-07-31T00:39:29;2.00;;;1.50;;
16878;SDS011;8556;52.218;9.884;2023-07-31T00:41:56;4.25;;;2.00;;
16878;SDS011;8556;52.218;9.884;2023-07-31T00:44:23;3.33;;;1.58;;
16878;SDS011;8556;52.218;9.884;2023-07-31T00:46:50;2.70;;;2.05;;
16878;SDS011;8556;52.218;9.884;2023-07-31T00:49:18;5.05;;;1.88;;
16878;SDS011;8556;52.218;9.884;2023-07-31T00:51:46;2.15;;;1.60;;
16878;SDS011;8556;52.218;9.884;2023-07-31T00:54:13;3.70;;;1.60;;
16878;SDS011;8556;52.218;9.884;2023-07-31T00:56:40;2.05;;;1.52;;
16878;SDS011;8556;52.218;9.884;2023-07-31T00:59:08;3.72;;;1.48;;
16878;SDS011;8556;52.218;9.884;2023-07-31T01:01:35;3.75;;;1.27;;
16878;SDS011;8556;52.218;9.884;2023-07-31T01:04:02;2.20;;;1.52;;
16878;SDS011;8556;52.218;9.884;2023-07-31T01:06:33;2.30;;;1.30;;
16878;SDS011;8556;52.218;9.884;2023-07-31T01:09:06;2.20;;;1.30;;
16878;SDS011;8556;52.218;9.884;2023-07-31T01:11:38;2.08;;;1.50;;
16878;SDS011;8556;52.218;9.884;2023-07-31T01:14:11;1.58;;;1.48;;
16878;SDS011;8556;52.218;9.884;2023-07-31T01:16:38;1.92;;;1.20;;
16878;SDS011;8556;52.218;9.884;2023-07-31T01:19:05;2.33;;;1.33;;
16878;SDS011;8556;52.218;9.884;2023-07-31T01:21:41;2.38;;;1.55;;
16878;SDS011;8556;52.218;9.884;2023-07-31T01:24:20;10.18;;;1.88;;
16878;SDS011;8556;52.218;9.884;2023-07-31T01:26:51;2.17;;;1.40;;
16878;SDS011;8556;52.218;9.884;2023-07-31T01:29:23;4.07;;;1.55;;
16878;SDS011;8556;52.218;9.884;2023-07-31T01:31:57;2.20;;;1.33;;
16878;SDS011;8556;52.218;9.884;2023-07-31T01:34:28;3.33;;;1.52;;
16878;SDS011;8556;52.218;9.884;2023-07-31T01:36:56;1.42;;;1.25;;
16878;SDS011;8556;52.218;9.884;2023-07-31T01:39:23;2.80;;;1.17;;
16878;SDS011;8556;52.218;9.884;2023-07-31T01:41:51;1.73;;;1.13;;
16878;SDS011;8556;52.218;9.884;2023-07-31T01:44:18;2.25;;;0.80;;
16878;SDS011;8556;52.218;9.884;2023-07-31T01:46:45;1.75;;;1.08;;
16878;SDS011;8556;52.218;9.884;2023-07-31T01:49:11;1.73;;;1.13;;
16878;SDS011;8556;52.218;9.884;2023-07-31T01:51:38;1.75;;;0.70;;
16878;SDS011;8556;52.218;9.884;2023-07-31T01:54:05;1.02;;;0.70;;
16878;SDS011;8556;52.218;9.884;2023-07-31T01:56:32;1.08;;;0.98;;
16878;SDS011;8556;52.218;9.884;2023-07-31T01:59:00;1.52;;;0.73;;
16878;SDS011;8556;52.218;9.884;2023-07-31T02:01:27;1.33;;;0.52;;
16878;SDS011;8556;52.218;9.884;2023-07-31T02:03:54;0.80;;;0.75;;
16878;SDS011;8556;52.218;9.884;2023-07-31T02:06:21;0.82;;;0.50;;
16878;SDS011;8556;52.218;9.884;2023-07-31T02:08:48;1.17;;;0.75;;
16878;SDS011;8556;52.218;9.884;2023-07-31T02:11:15;2.05;;;0.70;;
16878;SDS011;8556;52.218;9.884;2023-07-31T02:13:42;3.63;;;0.95;;
16878;SDS011;8556;52.218;9.884;2023-07-31T02:16:10;0.60;;;0.55;;
16878;SDS011;8556;52.218;9.884;2023-07-31T02:18:37;0.65;;;0.55;;
16878;SDS011;8556;52.218;9.884;2023-07-31T02:21:03;0.75;;;0.70;;
16878;SDS011;8556;52.218;9.884;2023-07-31T02:23:30;2.45;;;0.70;;
16878;SDS011;8556;52.218;9.884;2023-07-31T02:25:57;2.55;;;0.70;;
16878;SDS011;8556;52.218;9.884;2023-07-31T02:28:24;1.08;;;1.00;;
16878;SDS011;8556;52.218;9.884;2023-07-31T02:30:51;1.10;;;0.68;;
16878;SDS011;8556;52.218;9.884;2023-07-31T02:33:19;0.70;;;0.70;;
16878;SDS011;8556;52.218;9.884;2023-07-31T02:35:46;2.35;;;0.70;;
16878;SDS011;8556;52.218;9.884;2023-07-31T02:38:13;2.35;;;0.75;;
16878;SDS011;8556;52.218;9.884;2023-07-31T02:40:40;14.85;;;9.55;;
16878;SDS011;8556;52.218;9.884;2023-07-31T02:43:07;2.10;;;1.90;;
16878;SDS011;8556;52.218;9.884;2023-07-31T02:45:34;2.08;;;1.27;;
16878;SDS011;8556;52.218;9.884;2023-07-31T02:48:01;0.80;;;0.80;;
16878;SDS011;8556;52.218;9.884;2023-07-31T02:50:29;0.80;;;0.68;;
16878;SDS011;8556;52.218;9.884;2023-07-31T02:52:57;1.15;;;1.08;;
16878;SDS011;8556;52.218;9.884;2023-07-31T02:55:23;0.68;;;0.68;;
16878;SDS011;8556;52.218;9.884;2023-07-31T02:57:50;1.00;;;0.65;;
16878;SDS011;8556;52.218;9.884;2023-07-31T03:00:17;1.33;;;0.85;;
16878;SDS011;8556;52.218;9.884;2023-07-31T03:02:44;0.88;;;0.68;;
16878;SDS011;8556;52.218;9.884;2023-07-31T03:05:11;1.75;;;0.63;;
16878;SDS011;8556;52.218;9.884;2023-07-31T03:07:39;1.95;;;0.77;;
16878;SDS011;8556;52.218;9.884;2023-07-31T03:10:07;2.22;;;0.80;;
16878;SDS011;8556;52.218;9.884;2023-07-31T03:12:34;2.78;;;0.80;;
16878;SDS011;8556;52.218;9.884;2023-07-31T03:15:01;1.77;;;0.80;;
16878;SDS011;8556;52.218;9.884;2023-07-31T03:17:27;0.75;;;0.75;;
16878;SDS011;8556;52.218;9.884;2023-07-31T03:19:54;2.03;;;0.90;;
16878;SDS011;8556;52.218;9.884;2023-07-31T03:22:21;1.95;;;0.68;;
16878;SDS011;8556;52.218;9.884;2023-07-31T03:24:49;1.00;;;1.00;;
16878;SDS011;8556;52.218;9.884;2023-07-31T03:27:16;1.50;;;0.90;;
16878;SDS011;8556;52.218;9.884;2023-07-31T03:29:43;2.03;;;0.85;;
16878;SDS011;8556;52.218;9.884;2023-07-31T03:32:09;1.48;;;0.93;;
16878;SDS011;8556;52.218;9.884;2023-07-31T03:34:36;3.40;;;2.00;;
16878;SDS011;8556;52.218;9.884;2023-07-31T03:37:03;6.05;;;2.00;;
16878;SDS011;8556;52.218;9.884;2023-07-31T03:39:31;1.60;;;1.15;;
16878;SDS011;8556;52.218;9.884;2023-07-31T03:41:59;3.13;;;0.82;;
16878;SDS011;8556;52.218;9.884;2023-07-31T03:44:26;1.00;;;0.88;;
16878;SDS011;8556;52.218;9.884;2023-07-31T03:46:52;1.95;;;0.95;;
16878;SDS011;8556;52.218;9.884;2023-07-31T03:49:19;2.20;;;1.00;;
16878;SDS011;8556;52.218;9.884;2023-07-31T03:51:46;2.75;;;1.25;;
16878;SDS011;8556;52.218;9.884;2023-07-31T03:54:13;0.70;;;0.70;;
16878;SDS011;8556;52.218;9.884;2023-07-31T03:56:39;1.20;;;0.93;;
16878;SDS011;8556;52.218;9.884;2023-07-31T03:59:08;0.98;;;0.98;;
16878;SDS011;8556;52.218;9.884;2023-07-31T04:01:37;1.60;;;1.05;;
16878;SDS011;8556;52.218;9.884;2023-07-31T04:04:03;1.00;;;0.90;;
16878;SDS011;8556;52.218;9.884;2023-07-31T04:06:30;1.30;;;1.20;;
16878;SDS011;8556;52.218;9.884;2023-07-31T04:08:57;0.73;;;0.73;;
16878;SDS011;8556;52.218;9.884;2023-07-31T04:11:24;3.42;;;1.00;;
16878;SDS011;8556;52.218;9.884;2023-07-31T04:13:50;3.22;;;1.10;;
16878;SDS011;8556;52.218;9.884;2023-07-31T04:16:18;4.00;;;0.95;;
16878;SDS011;8556;52.218;9.884;2023-07-31T04:18:45;4.78;;;2.10;;
16878;SDS011;8556;52.218;9.884;2023-07-31T04:21:12;5.25;;;2.05;;
16878;SDS011;8556;52.218;9.884;2023-07-31T04:23:39;3.50;;;1.10;;
16878;SDS011;8556;52.218;9.884;2023-07-31T04:26:06;1.30;;;1.15;;
16878;SDS011;8556;52.218;9.884;2023-07-31T04:28:32;3.58;;;0.82;;
16878;SDS011;8556;52.218;9.884;2023-07-31T04:30:59;3.03;;;1.13;;
16878;SDS011;8556;52.218;9.884;2023-07-31T04:33:27;2.67;;;0.98;;
16878;SDS011;8556;52.218;9.884;2023-07-31T04:35:54;1.17;;;0.75;;
16878;SDS011;8556;52.218;9.884;2023-07-31T04:38:21;3.88;;;0.73;;
16878;SDS011;8556;52.218;9.884;2023-07-31T04:40:48;1.40;;;0.60;;
16878;SDS011;8556;52.218;9.884;2023-07-31T04:43:15;0.60;;;0.60;;
16878;SDS011;8556;52.218;9.884;2023-07-31T04:45:42;1.80;;;0.90;;
16878;SDS011;8556;52.218;9.884;2023-07-31T04:48:11;0.88;;;0.60;;
16878;SDS011;8556;52.218;9.884;2023-07-31T04:50:40;0.90;;;0.70;;
16878;SDS011;8556;52.218;9.884;2023-07-31T04:53:07;1.05;;;0.40;;
16878;SDS011;8556;52.218;9.884;2023-07-31T04:55:34;1.13;;;0.60;;
16878;SDS011;8556;52.218;9.884;2023-07-31T04:58:04;1.13;;;0.45;;
16878;SDS011;8556;52.218;9.884;2023-07-31T05:00:31;1.25;;;0.47;;
16878;SDS011;8556;52.218;9.884;2023-07-31T05:02:58;1.73;;;0.80;;
16878;SDS011;8556;52.218;9.884;2023-07-31T05:05:25;2.33;;;1.02;;
16878;SDS011;8556;52.218;9.884;2023-07-31T05:07:53;1.80;;;0.90;;
16878;SDS011;8556;52.218;9.884;2023-07-31T05:10:26;2.42;;;1.10;;
16878;SDS011;8556;52.218;9.884;2023-07-31T05:12:54;1.60;;;1.20;;
16878;SDS011;8556;52.218;9.884;2023-07-31T05:15:26;2.15;;;1.90;;
16878;SDS011;8556;52.218;9.884;2023-07-31T05:18:15;3.03;;;2.40;;
16878;SDS011;8556;52.218;9.884;2023-07-31T05:20:51;4.75;;;2.60;;
16878;SDS011;8556;52.218;9.884;2023-07-31T05:23:19;3.55;;;2.70;;
16878;SDS011;8556;52.218;9.884;2023-07-31T05:25:54;4.93;;;2.80;;
16878;SDS011;8556;52.218;9.884;2023-07-31T05:28:29;4.60;;;3.05;;
16878;SDS011;8556;52.218;9.884;2023-07-31T05:31:04;4.80;;;3.45;;
16878;SDS011;8556;52.218;9.884;2023-07-31T05:33:41;7.93;;;4.10;;
16878;SDS011;8556;52.218;9.884;2023-07-31T05:36:16;6.15;;;4.60;;
16878;SDS011;8556;52.218;9.884;2023-07-31T05:38:44;9.98;;;5.47;;
16878;SDS011;8556;52.218;9.884;2023-07-31T05:41:21;10.75;;;5.45;;
16878;SDS011;8556;52.218;9.884;2023-07-31T05:43:52;12.20;;;6.20;;
16878;SDS011;8556;52.218;9.884;2023-07-31T05:46:21;12.27;;;6.50;;
16878;SDS011;8556;52.218;9.884;2023-07-31T05:49:05;10.60;;;6.07;;
16878;SDS011;8556;52.218;9.884;2023-07-31T05:51:34;10.68;;;5.78;;
16878;SDS011;8556;52.218;9.884;2023-07-31T05:54:02;10.45;;;6.10;;
16878;SDS011;8556;52.218;9.884;2023-07-31T05:56:29;10.73;;;6.00;;
16878;SDS011;8556;52.218;9.884;2023-07-31T05:58:56;13.38;;;6.53;;
16878;SDS011;8556;52.218;9.884;2023-07-31T06:01:23;12.68;;;6.15;;
16878;SDS011;8556;52.218;9.884;2023-07-31T06:03:53;10.60;;;5.93;;
16878;SDS011;8556;52.218;9.884;2023-07-31T06:06:20;9.90;;;5.55;;
16878;SDS011;8556;52.218;9.884;2023-07-31T06:08:48;9.82;;;5.22;;
16878;SDS011;8556;52.218;9.884;2023-07-31T06:11:18;10.52;;;6.15;;
16878;SDS011;8556;52.218;9.884;2023-07-31T06:13:49;10.00;;;5.65;;
16878;SDS011;8556;52.218;9.884;2023-07-31T06:16:18;8.18;;;4.75;;
16878;SDS011;8556;52.218;9.884;2023-07-31T06:18:46;10.57;;;4.78;;
16878;SDS011;8556;52.218;9.884;2023-07-31T06:21:13;7.75;;;5.13;;
16878;SDS011;8556;52.218;9.884;2023-07-31T06:23:40;8.63;;;4.85;;
16878;SDS011;8556;52.218;9.884;2023-07-31T06:26:10;9.00;;;5.35;;
16878;SDS011;8556;52.218;9.884;2023-07-31T06:28:38;9.38;;;5.43;;
16878;SDS011;8556;52.218;9.884;2023-07-31T06:31:05;14.85;;;6.07;;
16878;SDS011;8556;52.218;9.884;2023-07-31T06:33:36;10.50;;;5.55;;
16878;SDS011;8556;52.218;9.884;2023-07-31T06:36:03;12.70;;;6.50;;
16878;SDS011;8556;52.218;9.884;2023-07-31T06:38:31;12.13;;;6.55;;
16878;SDS011;8556;52.218;9.884;2023-07-31T06:40:58;10.88;;;7.00;;
16878;SDS011;8556;52.218;9.884;2023-07-31T06:43:25;11.13;;;7.10;;
16878;SDS011;8556;52.218;9.884;2023-07-31T06:45:53;13.07;;;7.15;;
16878;SDS011;8556;52.218;9.884;2023-07-31T06:48:20;14.32;;;8.00;;
16878;SDS011;8556;52.218;9.884;2023-07-31T06:50:47;14.55;;;8.48;;
16878;SDS011;8556;52.218;9.884;2023-07-31T06:53:14;12.93;;;8.50;;
16878;SDS011;8556;52.218;9.884;2023-07-31T06:55:41;16.08;;;8.88;;
16878;SDS011;8556;52.218;9.884;2023-07-31T06:58:07;17.42;;;9.55;;
16878;SDS011;8556;52.218;9.884;2023-07-31T07:00:34;17.30;;;9.25;;
16878;SDS011;8556;52.218;9.884;2023-07-31T07:03:02;17.67;;;9.02;;
16878;SDS011;8556;52.218;9.884;2023-07-31T07:05:29;16.63;;;9.13;;
16878;SDS011;8556;52.218;9.884;2023-07-31T07:07:56;16.67;;;9.15;;
16878;SDS011;8556;52.218;9.884;2023-07-31T07:10:24;18.08;;;9.15;;
16878;SDS011;8556;52.218;9.884;2023-07-31T07:12:51;18.27;;;9.63;;
16878;SDS011;8556;52.218;9.884;2023-07-31T07:15:17;16.33;;;9.20;;
16878;SDS011;8556;52.218;9.884;2023-07-31T07:17:44;18.38;;;8.95;;
16878;SDS011;8556;52.218;9.884;2023-07-31T07:20:13;16.50;;;8.80;;
16878;SDS011;8556;52.218;9.884;2023-07-31T07:22:40;17.33;;;10.23;;
16878;SDS011;8556;52.218;9.884;2023-07-31T07:25:08;17.30;;;8.95;;
16878;SDS011;8556;52.218;9.884;2023-07-31T07:27:35;12.65;;;8.57;;
16878;SDS011;8556;52.218;9.884;2023-07-31T07:30:02;14.70;;;7.65;;
16878;SDS011;8556;52.218;9.884;2023-07-31T07:32:29;13.02;;;7.90;;
16878;SDS011;8556;52.218;9.884;2023-07-31T07:34:56;11.75;;;7.10;;
16878;SDS011;8556;52.218;9.884;2023-07-31T07:37:24;11.77;;;7.53;;
16878;SDS011;8556;52.218;9.884;2023-07-31T07:39:51;13.27;;;7.60;;
16878;SDS011;8556;52.218;9.884;2023-07-31T07:42:17;16.45;;;8.02;;
16878;SDS011;8556;52.218;9.884;2023-07-31T07:44:44;13.15;;;7.22;;
16878;SDS011;8556;52.218;9.884;2023-07-31T07:47:12;16.90;;;7.80;;
16878;SDS011;8556;52.218;9.884;2023-07-31T07:49:39;15.40;;;8.57;;
16878;SDS011;8556;52.218;9.884;2023-07-31T07:52:06;10.38;;;6.15;;
16878;SDS011;8556;52.218;9.884;2023-07-31T07:54:34;12.65;;;6.50;;
16878;SDS011;8556;52.218;9.884;2023-07-31T07:57:01;11.93;;;6.78;;
16878;SDS011;8556;52.218;9.884;2023-07-31T07:59:28;13.20;;;6.82;;
16878;SDS011;8556;52.218;9.884;2023-07-31T08:01:55;12.07;;;6.20;;
16878;SDS011;8556;52.218;9.884;2023-07-31T08:04:22;14.02;;;6.80;;
16878;SDS011;8556;52.218;9.884;2023-07-31T08:06:49;13.13;;;6.55;;
16878;SDS011;8556;52.218;9.884;2023-07-31T08:09:16;11.88;;;6.38;;
16878;SDS011;8556;52.218;9.884;2023-07-31T08:11:44;14.02;;;6.30;;
16878;SDS011;8556;52.218;9.884;2023-07-31T08:14:11;12.55;;;6.50;;
16878;SDS011;8556;52.218;9.884;2023-07-31T08:16:38;13.13;;;6.43;;
16878;SDS011;8556;52.218;9.884;2023-07-31T08:19:04;9.52;;;6.10;;
16878;SDS011;8556;52.218;9.884;2023-07-31T08:21:31;12.82;;;6.53;;
16878;SDS011;8556;52.218;9.884;2023-07-31T08:23:58;9.30;;;5.60;;
16878;SDS011;8556;52.218;9.884;2023-07-31T08:26:25;12.82;;;6.45;;
16878;SDS011;8556;52.218;9.884;2023-07-31T08:28:53;12.93;;;6.32;;
16878;SDS011;8556;52.218;9.884;2023-07-31T08:31:20;11.68;;;6.15;;
16878;SDS011;8556;52.218;9.884;2023-07-31T08:33:47;9.73;;;6.30;;
16878;SDS011;8556;52.218;9.884;2023-07-31T08:36:13;11.30;;;6.53;;
16878;SDS011;8556;52.218;9.884;2023-07-31T08:38:40;13.82;;;7.55;;
16878;SDS011;8556;52.218;9.884;2023-07-31T08:41:07;10.35;;;6.18;;
16878;SDS011;8556;52.218;9.884;2023-07-31T08:43:34;12.13;;;5.82;;
16878;SDS011;8556;52.218;9.884;2023-07-31T08:46:03;12.27;;;5.88;;
16878;SDS011;8556;52.218;9.884;2023-07-31T08:48:31;14.07;;;6.68;;
16878;SDS011;8556;52.218;9.884;2023-07-31T08:50:58;10.25;;;6.18;;
16878;SDS011;8556;52.218;9.884;2023-07-31T08:53:25;11.35;;;5.45;;
16878;SDS011;8556;52.218;9.884;2023-07-31T08:55:52;9.73;;;5.90;;
16878;SDS011;8556;52.218;9.884;2023-07-31T08:58:19;13.95;;;6.22;;
16878;SDS011;8556;52.218;9.884;2023-07-31T09:00:47;9.70;;;5.53;;
16878;SDS011;8556;52.218;9.884;2023-07-31T09:03:16;8.65;;;5.13;;
16878;SDS011;8556;52.218;9.884;2023-07-31T09:05:44;10.32;;;5.75;;
16878;SDS011;8556;52.218;9.884;2023-07-31T09:08:13;10.27;;;4.75;;
16878;SDS011;8556;52.218;9.884;2023-07-31T09:10:44;9.75;;;5.03;;
16878;SDS011;8556;52.218;9.884;2023-07-31T09:13:12;7.80;;;4.57;;
16878;SDS011;8556;52.218;9.884;2023-07-31T09:15:39;6.97;;;3.83;;
16878;SDS011;8556;52.218;9.884;2023-07-31T09:18:08;8.35;;;4.38;;
16878;SDS011;8556;52.218;9.884;2023-07-31T09:20:37;5.05;;;3.53;;
16878;SDS011;8556;52.218;9.884;2023-07-31T09:23:08;5.22;;;3.35;;
16878;SDS011;8556;52.218;9.884;2023-07-31T09:25:36;4.53;;;2.88;;
16878;SDS011;8556;52.218;9.884;2023-07-31T09:28:04;6.68;;;3.15;;
16878;SDS011;8556;52.218;9.884;2023-07-31T09:30:43;3.97;;;2.97;;
16878;SDS011;8556;52.218;9.884;2023-07-31T09:33:11;3.97;;;2.45;;
16878;SDS011;8556;52.218;9.884;2023-07-31T09:35:39;3.72;;;2.60;;
16878;SDS011;8556;52.218;9.884;2023-07-31T09:38:08;4.05;;;2.85;;
16878;SDS011;8556;52.218;9.884;2023-07-31T09:40:37;4.03;;;2.45;;
16878;SDS011;8556;52.218;9.884;2023-07-31T09:43:05;4.47;;;2.53;;
16878;SDS011;8556;52.218;9.884;2023-07-31T09:45:33;4.15;;;2.63;;
16878;SDS011;8556;52.218;9.884;2023-07-31T09:48:02;4.32;;;2.83;;
16878;SDS011;8556;52.218;9.884;2023-07-31T09:50:34;4.32;;;2.78;;
16878;SDS011;8556;52.218;9.884;2023-07-31T09:53:04;4.50;;;2.95;;
16878;SDS011;8556;52.218;9.884;2023-07-31T09:55:32;6.32;;;3.20;;
16878;SDS011;8556;52.218;9.884;2023-07-31T09:58:03;4.93;;;3.10;;
16878;SDS011;8556;52.218;9.884;2023-07-31T10:00:31;4.47;;;3.22;;
16878;SDS011;8556;52.218;9.884;2023-07-31T10:02:58;5.53;;;3.13;;
16878;SDS011;8556;52.218;9.884;2023-07-31T10:05:27;4.47;;;3.17;;
16878;SDS011;8556;52.218;9.884;2023-07-31T10:07:57;6.60;;;3.78;;
16878;SDS011;8556;52.218;9.884;2023-07-31T10:10:26;4.72;;;3.70;;
16878;SDS011;8556;52.218;9.884;2023-07-31T10:12:53;4.05;;;3.10;;
16878;SDS011;8556;52.218;9.884;2023-07-31T10:15:22;4.85;;;3.30;;
16878;SDS011;8556;52.218;9.884;2023-07-31T10:17:50;5.35;;;3.38;;
16878;SDS011;8556;52.218;9.884;2023-07-31T10:20:17;5.28;;;3.72;;
16878;SDS011;8556;52.218;9.884;2023-07-31T10:22:44;4.43;;;3.30;;
16878;SDS011;8556;52.218;9.884;2023-07-31T10:25:12;5.28;;;3.40;;
16878;SDS011;8556;52.218;9.884;2023-07-31T10:27:40;5.13;;;3.40;;
16878;SDS011;8556;52.218;9.884;2023-07-31T10:30:08;5.50;;;3.90;;
16878;SDS011;8556;52.218;9.884;2023-07-31T10:32:38;6.50;;;3.35;;
16878;SDS011;8556;52.218;9.884;2023-07-31T10:35:07;5.50;;;3.13;;
16878;SDS011;8556;52.218;9.884;2023-07-31T10:37:36;5.63;;;3.90;;
16878;SDS011;8556;52.218;9.884;2023-07-31T10:40:05;6.55;;;3.90;;
16878;SDS011;8556;52.218;9.884;2023-07-31T10:42:36;6.68;;;3.50;;
16878;SDS011;8556;52.218;9.884;2023-07-31T10:45:07;4.95;;;3.47;;
16878;SDS011;8556;52.218;9.884;2023-07-31T10:47:38;4.32;;;3.30;;
16878;SDS011;8556;52.218;9.884;2023-07-31T10:50:16;5.28;;;3.40;;
16878;SDS011;8556;52.218;9.884;2023-07-31T10:52:46;6.68;;;3.95;;
16878;SDS011;8556;52.218;9.884;2023-07-31T10:55:15;5.65;;;3.25;;
16878;SDS011;8556;52.218;9.884;2023-07-31T10:57:48;6.25;;;3.40;;
16878;SDS011;8556;52.218;9.884;2023-07-31T11:00:20;3.65;;;3.17;;
16878;SDS011;8556;52.218;9.884;2023-07-31T11:02:58;4.93;;;3.20;;
16878;SDS011;8556;52.218;9.884;2023-07-31T11:05:45;3.17;;;2.88;;
16878;SDS011;8556;52.218;9.884;2023-07-31T11:08:14;4.90;;;3.00;;
16878;SDS011;8556;52.218;9.884;2023-07-31T11:10:43;6.20;;;3.03;;
16878;SDS011;8556;52.218;9.884;2023-07-31T11:13:10;5.60;;;3.00;;
16878;SDS011;8556;52.218;9.884;2023-07-31T11:15:38;4.43;;;2.85;;
16878;SDS011;8556;52.218;9.884;2023-07-31T11:18:05;4.47;;;3.08;;
16878;SDS011;8556;52.218;9.884;2023-07-31T11:20:33;5.20;;;2.70;;
16878;SDS011;8556;52.218;9.884;2023-07-31T11:23:02;2.85;;;2.60;;
16878;SDS011;8556;52.218;9.884;2023-07-31T11:25:29;5.00;;;2.92;;
16878;SDS011;8556;52.218;9.884;2023-07-31T11:27:57;4.43;;;2.60;;
16878;SDS011;8556;52.218;9.884;2023-07-31T11:30:27;4.68;;;2.65;;
16878;SDS011;8556;52.218;9.884;2023-07-31T11:32:56;4.60;;;2.63;;
16878;SDS011;8556;52.218;9.884;2023-07-31T11:35:23;3.10;;;2.80;;
16878;SDS011;8556;52.218;9.884;2023-07-31T11:37:50;5.05;;;2.90;;
16878;SDS011;8556;52.218;9.884;2023-07-31T11:40:17;4.47;;;2.85;;
16878;SDS011;8556;52.218;9.884;2023-07-31T11:42:45;4.35;;;3.25;;
16878;SDS011;8556;52.218;9.884;2023-07-31T11:45:12;6.00;;;3.03;;
16878;SDS011;8556;52.218;9.884;2023-07-31T11:47:38;6.05;;;2.70;;
16878;SDS011;8556;52.218;9.884;2023-07-31T11:50:10;5.38;;;2.67;;
16878;SDS011;8556;52.218;9.884;2023-07-31T11:52:39;3.60;;;2.30;;
16878;SDS011;8556;52.218;9.884;2023-07-31T11:55:08;3.00;;;2.58;;
16878;SDS011;8556;52.218;9.884;2023-07-31T11:57:36;2.53;;;2.10;;
16878;SDS011;8556;52.218;9.884;2023-07-31T12:00:05;3.35;;;2.40;;
16878;SDS011;8556;52.218;9.884;2023-07-31T12:02:33;4.85;;;2.45;;
16878;SDS011;8556;52.218;9.884;2023-07-31T12:05:00;2.60;;;2.30;;
16878;SDS011;8556;52.218;9.884;2023-07-31T12:07:34;3.05;;;2.28;;
16878;SDS011;8556;52.218;9.884;2023-07-31T12:10:09;5.28;;;2.40;;
16878;SDS011;8556;52.218;9.884;2023-07-31T12:12:37;5.22;;;2.58;;
16878;SDS011;8556;52.218;9.884;2023-07-31T12:15:12;3.88;;;2.30;;
16878;SDS011;8556;52.218;9.884;2023-07-31T12:17:40;2.67;;;1.83;;
16878;SDS011;8556;52.218;9.884;2023-07-31T12:20:08;2.50;;;2.15;;
16878;SDS011;8556;52.218;9.884;2023-07-31T12:22:37;2.65;;;1.95;;
16878;SDS011;8556;52.218;9.884;2023-07-31T12:25:04;3.35;;;2.50;;
16878;SDS011;8556;52.218;9.884;2023-07-31T12:27:32;3.97;;;2.10;;
16878;SDS011;8556;52.218;9.884;2023-07-31T12:30:00;3.88;;;2.40;;
16878;SDS011;8556;52.218;9.884;2023-07-31T12:32:27;3.10;;;2.10;;
16878;SDS011;8556;52.218;9.884;2023-07-31T12:34:59;4.93;;;2.33;;
16878;SDS011;8556;52.218;9.884;2023-07-31T12:37:28;3.67;;;2.25;;
16878;SDS011;8556;52.218;9.884;2023-07-31T12:39:56;5.05;;;2.28;;
16878;SDS011;8556;52.218;9.884;2023-07-31T12:42:30;2.58;;;2.17;;
16878;SDS011;8556;52.218;9.884;2023-07-31T12:44:57;6.32;;;2.65;;
16878;SDS011;8556;52.218;9.884;2023-07-31T12:47:23;2.58;;;1.92;;
16878;SDS011;8556;52.218;9.884;2023-07-31T12:49:50;3.58;;;2.20;;
16878;SDS011;8556;52.218;9.884;2023-07-31T12:52:17;4.47;;;2.20;;
16878;SDS011;8556;52.218;9.884;2023-07-31T12:54:44;3.85;;;2.00;;
16878;SDS011;8556;52.218;9.884;2023-07-31T12:57:12;2.38;;;1.73;;
16878;SDS011;8556;52.218;9.884;2023-07-31T12:59:39;2.53;;;1.55;;
16878;SDS011;8556;52.218;9.884;2023-07-31T13:02:06;1.50;;;1.40;;
16878;SDS011;8556;52.218;9.884;2023-07-31T13:04:33;1.88;;;1.67;;
16878;SDS011;8556;52.218;9.884;2023-07-31T13:06:59;2.55;;;1.10;;
16878;SDS011;8556;52.218;9.884;2023-07-31T13:09:26;2.05;;;1.20;;
16878;SDS011;8556;52.218;9.884;2023-07-31T13:11:53;2.85;;;1.90;;
16878;SDS011;8556;52.218;9.884;2023-07-31T13:14:21;0.80;;;0.80;;
16878;SDS011;8556;52.218;9.884;2023-07-31T13:16:48;1.20;;;1.10;;
16878;SDS011;8556;52.218;9.884;2023-07-31T13:19:15;0.70;;;0.70;;
16878;SDS011;8556;52.218;9.884;2023-07-31T13:21:42;1.10;;;1.00;;
16878;SDS011;8556;52.218;9.884;2023-07-31T13:24:08;0.50;;;0.50;;
16878;SDS011;8556;52.218;9.884;2023-07-31T13:26:36;0.57;;;0.50;;
16878;SDS011;8556;52.218;9.884;2023-07-31T13:29:02;0.95;;;0.55;;
16878;SDS011;8556;52.218;9.884;2023-07-31T13:31:31;1.63;;;0.57;;
16878;SDS011;8556;52.218;9.884;2023-07-31T13:33:58;0.50;;;0.50;;
16878;SDS011;8556;52.218;9.884;2023-07-31T13:36:24;1.20;;;0.98;;
16878;SDS011;8556;52.218;9.884;2023-07-31T13:38:51;0.77;;;0.77;;
16878;SDS011;8556;52.218;9.884;2023-07-31T13:41:18;1.90;;;0.70;;
16878;SDS011;8556;52.218;9.884;2023-07-31T13:43:45;0.63;;;0.63;;
16878;SDS011;8556;52.218;9.884;2023-07-31T13:46:12;0.70;;;0.70;;
16878;SDS011;8556;52.218;9.884;2023-07-31T13:48:40;1.42;;;0.50;;
16878;SDS011;8556;52.218;9.884;2023-07-31T13:51:07;1.23;;;0.90;;
16878;SDS011;8556;52.218;9.884;2023-07-31T13:53:33;0.70;;;0.70;;
16878;SDS011;8556;52.218;9.884;2023-07-31T13:56:00;0.60;;;0.60;;
16878;SDS011;8556;52.218;9.884;2023-07-31T13:58:27;0.60;;;0.60;;
16878;SDS011;8556;52.218;9.884;2023-07-31T14:00:54;0.70;;;0.70;;
16878;SDS011;8556;52.218;9.884;2023-07-31T14:03:21;1.30;;;0.70;;
16878;SDS011;8556;52.218;9.884;2023-07-31T14:05:49;1.27;;;0.85;;
16878;SDS011;8556;52.218;9.884;2023-07-31T14:08:18;1.20;;;0.88;;
16878;SDS011;8556;52.218;9.884;2023-07-31T14:10:45;0.60;;;0.60;;
16878;SDS011;8556;52.218;9.884;2023-07-31T14:13:12;0.70;;;0.70;;
16878;SDS011;8556;52.218;9.884;2023-07-31T14:15:39;2.13;;;0.85;;
16878;SDS011;8556;52.218;9.884;2023-07-31T14:18:07;0.70;;;0.70;;
16878;SDS011;8556;52.218;9.884;2023-07-31T14:20:37;2.53;;;0.90;;
16878;SDS011;8556;52.218;9.884;2023-07-31T14:48:00;1.42;;;1.33;;
16878;SDS011;8556;52.218;9.884;2023-07-31T14:50:27;1.90;;;1.80;;
16878;SDS011;8556;52.218;9.884;2023-07-31T14:52:54;1.30;;;1.20;;
16878;SDS011;8556;52.218;9.884;2023-07-31T14:55:21;1.40;;;1.40;;
16878;SDS011;8556;52.218;9.884;2023-07-31T14:57:48;1.73;;;1.63;;
16878;SDS011;8556;52.218;9.884;2023-07-31T15:00:15;2.30;;;1.60;;
16878;SDS011;8556;52.218;9.884;2023-07-31T15:02:42;3.58;;;2.13;;
16878;SDS011;8556;52.218;9.884;2023-07-31T15:05:10;1.88;;;1.73;;
16878;SDS011;8556;52.218;9.884;2023-07-31T15:07:37;1.80;;;1.70;;
16878;SDS011;8556;52.218;9.884;2023-07-31T15:10:04;2.30;;;1.70;;
16878;SDS011;8556;52.218;9.884;2023-07-31T15:12:32;3.42;;;1.83;;
16878;SDS011;8556;52.218;9.884;2023-07-31T15:14:59;1.80;;;1.70;;
16878;SDS011;8556;52.218;9.884;2023-07-31T15:17:27;2.38;;;1.77;;
16878;SDS011;8556;52.218;9.884;2023-07-31T15:19:54;2.42;;;2.22;;
16878;SDS011;8556;52.218;9.884;2023-07-31T15:22:23;1.88;;;1.77;;
16878;SDS011;8556;52.218;9.884;2023-07-31T15:24:50;2.20;;;2.00;;
16878;SDS011;8556;52.218;9.884;2023-07-31T15:27:17;2.35;;;1.90;;